Time;durP1;ratioP1;P1;durP2;ratioP2;P2;SDS_P1;SDS_P2;PMS_P1;PMS_P2;Temp;Humidity;BMP_temperature;BMP_pressure;BME280_temperature;BME280_humidity;BME280_pressure;Samples;Min_cycle;Max_cycle;Signal;HPM_P1;HPM_P2
2022/11/21 00:00:52;;;;;;;0.10;0.10;;;5.90;99.90;;;;;;5101809;28;20200;-84
2022/11/21 00:03:18;;;;;;;0.10;0.10;;;5.90;99.90;;;;;;5078928;28;20196;-84
2022/11/21 00:05:46;;;;;;;0.10;0.10;;;5.90;99.90;;;;;;5093245;28;20202;-83
2022/11/21 00:08:16;;;;;;;0.10;0.10;;;5.90;99.90;;;;;;5095930;28;20284;-84
2022/11/21 00:10:41;;;;;;;0.10;0.10;;;5.90;99.90;;;;;;5097023;28;20202;-85
2022/11/21 00:13:12;;;;;;;0.10;0.10;;;5.90;99.90;;;;;;5098495;28;20181;-84
2022/11/21 00:15:37;;;;;;;0.10;0.10;;;5.90;99.90;;;;;;5089907;28;20214;-85
2022/11/21 00:18:03;;;;;;;0.10;0.10;;;5.90;99.90;;;;;;5098007;28;20215;-84
2022/11/21 00:20:29;;;;;;;0.10;0.10;;;5.80;99.90;;;;;;5095612;28;20279;-85
2022/11/21 00:22:55;;;;;;;0.10;0.10;;;5.80;99.90;;;;;;5098061;28;20204;-83
2022/11/21 00:25:21;;;;;;;0.10;0.10;;;5.80;99.90;;;;;;5089200;28;20236;-84
2022/11/21 00:27:47;;;;;;;0.10;0.10;;;5.80;99.90;;;;;;5088437;28;20206;-84
2022/11/21 00:30:13;;;;;;;0.10;0.10;;;5.80;99.90;;;;;;5106456;28;20242;-85
2022/11/21 00:32:38;;;;;;;0.00;0.00;;;5.80;99.90;;;;;;5087317;28;20185;-85
2022/11/21 00:35:05;;;;;;;0.07;0.07;;;5.90;99.90;;;;;;5106115;28;20242;-85
2022/11/21 00:37:34;;;;;;;0.10;0.10;;;5.90;99.90;;;;;;5084167;28;20230;-84
2022/11/21 00:39:59;;;;;;;0.10;0.10;;;5.90;99.90;;;;;;5102683;28;20211;-84
2022/11/21 00:42:26;;;;;;;0.10;0.10;;;5.90;99.90;;;;;;5082171;28;20191;-85
2022/11/21 00:44:51;;;;;;;0.03;0.03;;;5.90;99.90;;;;;;5100599;28;20585;-85
2022/11/21 00:47:17;;;;;;;0.10;0.10;;;5.90;99.90;;;;;;5098398;28;20259;-85
2022/11/21 00:49:43;;;;;;;0.10;0.10;;;5.90;99.90;;;;;;5098160;28;20325;-85
2022/11/21 00:52:08;;;;;;;0.00;0.00;;;5.80;99.90;;;;;;5105658;28;20180;-85
2022/11/21 00:54:34;;;;;;;0.10;0.10;;;5.90;99.90;;;;;;5093299;28;20550;-85
2022/11/21 00:56:59;;;;;;;0.10;0.10;;;5.90;99.90;;;;;;5091774;28;20205;-85
2022/11/21 00:59:25;;;;;;;0.10;0.10;;;5.90;99.90;;;;;;5099751;28;20191;-85
2022/11/21 01:01:51;;;;;;;0.10;0.10;;;6.00;99.90;;;;;;5089133;28;20242;-85
2022/11/21 01:04:16;;;;;;;0.10;0.10;;;6.00;99.90;;;;;;5107795;28;20214;-85
2022/11/21 01:06:42;;;;;;;0.10;0.10;;;6.10;99.90;;;;;;5079073;28;20557;-84
2022/11/21 01:09:07;;;;;;;0.10;0.10;;;6.10;99.90;;;;;;5105167;28;20180;-85
2022/11/21 01:11:35;;;;;;;0.10;0.10;;;6.10;99.90;;;;;;5104507;28;20286;-85
2022/11/21 01:14:01;;;;;;;0.10;0.10;;;6.10;99.90;;;;;;5091880;28;20211;-86
2022/11/21 01:16:28;;;;;;;0.10;0.10;;;6.10;99.90;;;;;;5100030;28;20223;-85
2022/11/21 01:18:54;;;;;;;0.10;0.10;;;6.10;99.90;;;;;;5091738;28;20172;-85
2022/11/21 01:21:25;;;;;;;0.10;0.10;;;6.20;99.90;;;;;;5100068;28;20630;-85
2022/11/21 01:23:51;;;;;;;0.10;0.10;;;6.10;99.90;;;;;;5095138;28;20219;-85
2022/11/21 01:26:23;;;;;;;0.10;0.10;;;6.10;99.90;;;;;;5101219;28;20180;-85
2022/11/21 01:28:49;;;;;;;0.00;0.00;;;6.10;99.90;;;;;;5095342;28;20736;-86
2022/11/21 01:31:21;;;;;;;0.03;0.03;;;6.10;99.90;;;;;;5079523;28;20194;-85
2022/11/21 01:33:47;;;;;;;0.10;0.10;;;6.10;99.90;;;;;;5100752;28;20286;-85
2022/11/21 01:36:21;;;;;;;0.10;0.10;;;6.00;99.90;;;;;;5094746;28;20181;-84
2022/11/21 01:38:50;;;;;;;0.10;0.10;;;5.90;99.90;;;;;;5098393;28;20191;-85
2022/11/21 01:41:19;;;;;;;0.10;0.10;;;5.90;99.90;;;;;;5097614;28;20207;-84
2022/11/21 01:43:46;;;;;;;0.10;0.10;;;5.80;99.90;;;;;;5104955;28;20221;-85
2022/11/21 01:46:21;;;;;;;0.10;0.10;;;5.70;99.90;;;;;;5095573;28;20192;-84
2022/11/21 01:49:01;;;;;;;0.10;0.10;;;5.60;99.90;;;;;;5109907;28;20180;-85
2022/11/21 01:51:33;;;;;;;0.10;0.10;;;5.60;99.90;;;;;;5111816;28;20191;-85
2022/11/21 01:54:05;;;;;;;0.10;0.10;;;5.50;99.90;;;;;;5093098;28;20183;-85
2022/11/21 01:56:40;;;;;;;0.10;0.10;;;5.50;99.90;;;;;;5109702;28;20261;-85
2022/11/21 01:59:08;;;;;;;0.10;0.10;;;5.50;99.90;;;;;;5092298;28;20179;-84
2022/11/21 02:01:35;;;;;;;0.10;0.10;;;5.50;99.90;;;;;;5097336;28;20192;-85
2022/11/21 02:04:03;;;;;;;0.10;0.10;;;5.50;99.90;;;;;;5105205;28;20234;-85
2022/11/21 02:06:30;;;;;;;0.10;0.10;;;5.40;99.90;;;;;;5092502;28;20177;-85
2022/11/21 02:08:57;;;;;;;0.10;0.10;;;5.40;99.90;;;;;;5102999;28;20168;-87
2022/11/21 02:11:45;;;;;;;0.10;0.10;;;5.40;99.90;;;;;;5106187;28;20202;-84
2022/11/21 02:14:11;;;;;;;0.10;0.10;;;5.40;99.90;;;;;;5107445;28;20184;-85
2022/11/21 02:16:36;;;;;;;0.10;0.10;;;5.40;99.90;;;;;;5092363;28;20172;-85
2022/11/21 02:19:03;;;;;;;0.10;0.10;;;5.50;99.90;;;;;;5093611;28;20181;-84
2022/11/21 02:21:36;;;;;;;0.10;0.10;;;5.50;99.90;;;;;;5102513;28;20669;-85
2022/11/21 02:24:17;;;;;;;0.10;0.10;;;5.50;99.90;;;;;;5103586;28;20225;-85
2022/11/21 02:26:45;;;;;;;0.10;0.10;;;5.50;99.90;;;;;;5096188;28;20660;-85
2022/11/21 02:29:10;;;;;;;0.10;0.10;;;5.50;99.90;;;;;;5088040;28;20226;-85
2022/11/21 02:31:36;;;;;;;0.00;0.00;;;5.50;99.90;;;;;;5097424;28;20204;-85
2022/11/21 02:34:01;;;;;;;0.10;0.10;;;5.60;99.90;;;;;;5099412;28;20177;-85
2022/11/21 02:36:43;;;;;;;0.10;0.10;;;5.60;99.90;;;;;;5096241;28;20592;-86
2022/11/21 02:39:22;;;;;;;0.10;0.10;;;5.60;99.90;;;;;;5098069;28;20187;-85
2022/11/21 02:42:29;;;;;;;0.00;0.00;;;5.70;99.90;;;;;;5093192;28;20195;-85
2022/11/21 02:45:00;;;;;;;0.10;0.10;;;5.70;99.90;;;;;;5098471;28;20177;-85
2022/11/21 02:47:27;;;;;;;0.10;0.10;;;5.70;99.90;;;;;;5083336;28;20179;-85
2022/11/21 02:50:01;;;;;;;0.10;0.10;;;5.80;99.90;;;;;;5102136;28;20190;-85
2022/11/21 02:52:27;;;;;;;0.10;0.10;;;5.80;99.90;;;;;;5098231;28;20178;-85
2022/11/21 02:54:52;;;;;;;0.10;0.10;;;5.90;99.90;;;;;;5094663;28;20258;-85
2022/11/21 02:57:18;;;;;;;0.10;0.10;;;5.90;99.90;;;;;;5101107;28;20191;-85
2022/11/21 02:59:43;;;;;;;0.10;0.10;;;5.90;99.90;;;;;;5091837;28;20691;-85
2022/11/21 03:02:09;;;;;;;0.10;0.10;;;6.00;99.90;;;;;;5092264;28;20208;-85
2022/11/21 03:04:34;;;;;;;0.10;0.10;;;6.00;99.90;;;;;;5110051;28;20205;-85
2022/11/21 03:07:00;;;;;;;0.10;0.10;;;6.00;99.90;;;;;;5089629;28;20172;-84
2022/11/21 03:09:26;;;;;;;0.10;0.10;;;6.10;99.90;;;;;;5107610;28;20179;-85
2022/11/21 03:11:51;;;;;;;0.10;0.10;;;6.10;99.90;;;;;;5079155;28;20570;-85
2022/11/21 03:14:17;;;;;;;0.10;0.10;;;6.10;99.90;;;;;;5106127;28;20233;-85
2022/11/21 03:16:42;;;;;;;0.10;0.10;;;6.10;99.90;;;;;;5102590;28;20643;-85
2022/11/21 03:19:08;;;;;;;0.10;0.10;;;6.10;99.90;;;;;;5108362;28;20188;-85
2022/11/21 03:21:33;;;;;;;0.10;0.10;;;6.10;99.90;;;;;;5102174;28;20194;-85
2022/11/21 03:23:59;;;;;;;0.10;0.10;;;6.00;99.90;;;;;;5091191;28;20199;-85
2022/11/21 03:26:24;;;;;;;0.10;0.10;;;6.00;99.90;;;;;;5096174;28;20673;-85
2022/11/21 03:28:50;;;;;;;0.10;0.10;;;6.00;99.90;;;;;;5086539;28;20184;-84
2022/11/21 03:31:15;;;;;;;0.10;0.10;;;6.00;99.90;;;;;;5094346;28;20192;-85
2022/11/21 03:33:41;;;;;;;0.10;0.10;;;6.00;99.90;;;;;;5104284;28;20176;-85
2022/11/21 03:36:07;;;;;;;0.10;0.10;;;6.00;99.90;;;;;;5101254;28;20669;-84
2022/11/21 03:38:32;;;;;;;0.10;0.10;;;6.00;99.90;;;;;;5094451;28;20182;-85
2022/11/21 03:41:03;;;;;;;0.10;0.10;;;5.90;99.90;;;;;;5095399;28;20209;-85
2022/11/21 03:43:28;;;;;;;0.10;0.10;;;5.90;99.90;;;;;;5107376;28;20210;-85
2022/11/21 03:45:54;;;;;;;0.10;0.10;;;5.80;99.90;;;;;;5107805;28;20251;-85
2022/11/21 03:48:19;;;;;;;0.10;0.10;;;5.80;99.90;;;;;;5092596;28;20223;-85
2022/11/21 03:50:45;;;;;;;0.10;0.10;;;5.70;99.90;;;;;;5105161;28;20184;-85
2022/11/21 03:53:10;;;;;;;0.10;0.10;;;5.60;99.90;;;;;;5083937;28;20657;-85
2022/11/21 03:55:36;;;;;;;0.10;0.10;;;5.60;99.90;;;;;;5083240;28;20183;-85
2022/11/21 03:58:02;;;;;;;0.10;0.10;;;5.50;99.90;;;;;;5102585;28;20195;-85
2022/11/21 04:00:28;;;;;;;0.10;0.10;;;5.50;99.90;;;;;;5108565;28;20637;-84
2022/11/21 04:02:53;;;;;;;0.10;0.10;;;5.40;99.90;;;;;;5090870;28;20226;-84
2022/11/21 04:05:19;;;;;;;0.10;0.10;;;5.40;99.90;;;;;;5095164;28;20180;-83
2022/11/21 04:07:45;;;;;;;0.10;0.10;;;5.30;99.90;;;;;;5097860;28;20216;-85
2022/11/21 04:10:10;;;;;;;0.10;0.10;;;5.30;99.90;;;;;;5094909;28;20292;-85
2022/11/21 04:12:36;;;;;;;0.10;0.10;;;5.30;99.90;;;;;;5091768;28;20718;-85
2022/11/21 04:15:02;;;;;;;0.03;0.03;;;5.30;99.90;;;;;;5090520;28;20184;-85
2022/11/21 04:17:28;;;;;;;0.10;0.10;;;5.30;99.90;;;;;;5106041;28;20208;-85
2022/11/21 04:19:53;;;;;;;0.10;0.10;;;5.30;99.90;;;;;;5086939;28;20269;-85
2022/11/21 04:22:19;;;;;;;0.00;0.00;;;5.40;99.90;;;;;;5105298;28;20178;-85
2022/11/21 04:24:44;;;;;;;0.10;0.10;;;5.40;99.90;;;;;;5084198;28;20203;-85
2022/11/21 04:27:10;;;;;;;0.10;0.10;;;5.50;99.90;;;;;;5096928;28;20268;-85
2022/11/21 04:29:35;;;;;;;0.10;0.10;;;5.60;99.90;;;;;;5102924;28;20255;-84
2022/11/21 04:32:01;;;;;;;0.10;0.10;;;5.60;99.90;;;;;;5092863;28;20240;-85
2022/11/21 04:34:26;;;;;;;0.10;0.10;;;5.60;99.90;;;;;;5097624;28;20208;-85
2022/11/21 04:36:52;;;;;;;0.07;0.07;;;5.40;99.90;;;;;;5101634;28;20203;-85
2022/11/21 04:39:17;;;;;;;0.10;0.10;;;5.40;99.90;;;;;;5096626;28;20316;-85
2022/11/21 04:41:43;;;;;;;0.10;0.10;;;5.30;99.90;;;;;;5089650;28;20603;-85
2022/11/21 04:44:08;;;;;;;0.10;0.10;;;5.40;99.90;;;;;;5095388;28;20215;-85
2022/11/21 04:46:34;;;;;;;0.10;0.10;;;5.40;99.90;;;;;;5094743;28;20172;-85
2022/11/21 04:48:59;;;;;;;0.10;0.10;;;5.50;99.90;;;;;;5096229;28;20216;-85
2022/11/21 04:51:25;;;;;;;0.10;0.10;;;5.50;99.90;;;;;;5092844;28;20211;-85
2022/11/21 04:53:50;;;;;;;0.10;0.10;;;5.60;99.90;;;;;;5095513;28;20194;-85
2022/11/21 04:56:16;;;;;;;0.10;0.10;;;5.60;99.90;;;;;;5102587;28;20251;-85
2022/11/21 04:58:43;;;;;;;0.10;0.10;;;5.60;99.90;;;;;;5084951;28;20255;-85
2022/11/21 05:01:09;;;;;;;0.10;0.10;;;5.60;99.90;;;;;;5104209;28;20238;-85
2022/11/21 05:03:34;;;;;;;0.10;0.10;;;5.60;99.90;;;;;;5082930;28;20672;-85
2022/11/21 05:06:00;;;;;;;0.10;0.10;;;5.60;99.90;;;;;;5102702;28;20221;-85
2022/11/21 05:08:26;;;;;;;0.10;0.10;;;5.70;99.90;;;;;;5081635;28;20230;-85
2022/11/21 05:13:35;;;;;;;0.10;0.10;;;5.70;99.90;;;;;;5088809;28;20230;-84
2022/11/21 05:16:01;;;;;;;0.10;0.10;;;5.70;99.90;;;;;;5099617;28;20253;-85
2022/11/21 05:18:27;;;;;;;0.10;0.10;;;5.70;99.90;;;;;;5094750;28;20650;-85
2022/11/21 05:20:52;;;;;;;0.10;0.10;;;5.70;99.90;;;;;;5097285;28;20289;-85
2022/11/21 05:23:18;;;;;;;0.00;0.00;;;5.60;99.90;;;;;;5100711;28;20196;-85
2022/11/21 05:25:43;;;;;;;0.10;0.10;;;5.70;99.90;;;;;;5105599;28;20597;-86
2022/11/21 05:28:09;;;;;;;0.10;0.10;;;5.70;99.90;;;;;;5073078;28;20204;-85
2022/11/21 05:30:36;;;;;;;0.10;0.10;;;5.80;99.90;;;;;;5092965;28;20185;-85
2022/11/21 05:33:01;;;;;;;0.10;0.10;;;5.90;99.90;;;;;;5087904;28;20557;-84
2022/11/21 05:35:27;;;;;;;0.10;0.10;;;5.90;99.90;;;;;;5091003;28;20187;-85
2022/11/21 05:37:57;;;;;;;0.10;0.10;;;5.90;99.90;;;;;;5105210;28;20174;-85
2022/11/21 05:40:23;;;;;;;0.10;0.10;;;6.00;99.90;;;;;;5091430;28;20200;-85
2022/11/21 05:45:50;;;;;;;0.10;0.10;;;6.00;99.90;;;;;;5090702;28;20188;-85
2022/11/21 05:48:16;;;;;;;0.10;0.10;;;6.10;99.90;;;;;;5103795;28;20184;-86
2022/11/21 05:50:41;;;;;;;0.10;0.10;;;6.10;99.90;;;;;;5092722;28;20194;-85
2022/11/21 05:53:07;;;;;;;0.10;0.10;;;6.10;99.90;;;;;;5108707;28;20180;-85
2022/11/21 05:55:33;;;;;;;0.10;0.10;;;6.10;99.90;;;;;;5104772;28;20180;-85
2022/11/21 05:57:59;;;;;;;0.10;0.10;;;6.20;99.90;;;;;;5093460;28;20287;-86
2022/11/21 06:00:26;;;;;;;0.10;0.10;;;6.20;99.90;;;;;;5101199;28;20236;-85
2022/11/21 06:05:35;;;;;;;0.10;0.10;;;6.10;99.90;;;;;;5098563;28;20182;-86
2022/11/21 06:08:01;;;;;;;0.10;0.10;;;6.10;99.90;;;;;;5100526;28;20187;-86
2022/11/21 06:10:26;;;;;;;0.10;0.10;;;6.10;99.90;;;;;;5100488;28;20200;-85
2022/11/21 06:12:52;;;;;;;0.10;0.10;;;6.00;99.90;;;;;;5100949;28;20175;-86
2022/11/21 06:15:17;;;;;;;0.10;0.10;;;6.10;99.90;;;;;;5098532;28;20207;-85
2022/11/21 06:17:43;;;;;;;0.10;0.10;;;6.10;99.90;;;;;;5098155;28;20262;-85
2022/11/21 06:20:09;;;;;;;0.10;0.10;;;6.10;99.90;;;;;;5097416;28;20281;-85
2022/11/21 06:22:34;;;;;;;0.10;0.10;;;6.10;99.90;;;;;;5108446;28;20184;-85
2022/11/21 06:25:00;;;;;;;0.10;0.10;;;6.10;99.90;;;;;;5099703;28;20180;-85
2022/11/21 06:27:28;;;;;;;0.10;0.10;;;6.00;99.90;;;;;;5107066;28;20270;-85
2022/11/21 06:29:53;;;;;;;0.10;0.10;;;5.90;99.90;;;;;;5103378;28;20202;-85
2022/11/21 06:32:19;;;;;;;0.10;0.10;;;5.80;99.90;;;;;;5093994;28;20268;-85
2022/11/21 06:34:44;;;;;;;0.10;0.10;;;5.80;99.90;;;;;;5107625;28;20815;-86
2022/11/21 06:37:10;;;;;;;0.10;0.10;;;5.90;99.90;;;;;;5095097;28;20216;-86
2022/11/21 06:39:35;;;;;;;0.10;0.10;;;5.90;99.90;;;;;;5100501;28;20184;-86
2022/11/21 06:42:01;;;;;;;0.10;0.10;;;6.00;99.90;;;;;;5105073;28;20182;-86
2022/11/21 06:44:26;;;;;;;0.10;0.10;;;6.00;99.90;;;;;;5099350;28;20196;-86
2022/11/21 06:46:52;;;;;;;0.10;0.10;;;6.10;99.90;;;;;;5102373;28;20176;-85
2022/11/21 06:49:18;;;;;;;0.10;0.10;;;6.10;99.90;;;;;;5102124;28;20329;-85
2022/11/21 06:51:43;;;;;;;0.00;0.00;;;6.20;99.90;;;;;;5116380;28;20771;-85
2022/11/21 06:54:09;;;;;;;0.10;0.10;;;6.20;99.90;;;;;;5099061;28;20192;-85
2022/11/21 06:56:34;;;;;;;0.10;0.10;;;6.20;99.90;;;;;;5098346;28;20671;-85
2022/11/21 06:59:00;;;;;;;0.10;0.10;;;6.20;99.90;;;;;;5113001;28;20694;-86
2022/11/21 07:01:26;;;;;;;0.10;0.10;;;6.20;99.90;;;;;;5099040;28;20780;-85
2022/11/21 07:03:52;;;;;;;0.10;0.10;;;6.20;99.90;;;;;;5108805;28;20199;-85
2022/11/21 07:06:17;;;;;;;0.10;0.10;;;6.30;99.90;;;;;;5095629;28;20199;-85
2022/11/21 07:08:43;;;;;;;0.10;0.10;;;6.30;99.90;;;;;;5108158;28;20661;-85
2022/11/21 07:11:11;;;;;;;0.10;0.10;;;6.40;99.90;;;;;;5094481;28;20221;-85
2022/11/21 07:13:37;;;;;;;0.00;0.00;;;6.40;99.90;;;;;;5105697;28;20176;-85
2022/11/21 07:16:06;;;;;;;0.10;0.10;;;6.40;99.90;;;;;;5092957;28;20183;-86
2022/11/21 07:18:32;;;;;;;0.10;0.10;;;6.40;99.90;;;;;;5099964;28;20186;-85
2022/11/21 07:21:03;;;;;;;0.03;0.03;;;6.40;99.90;;;;;;5102022;28;20195;-86
2022/11/21 07:23:30;;;;;;;0.10;0.10;;;6.40;99.90;;;;;;5118679;27;20878;-86
2022/11/21 07:26:00;;;;;;;0.10;0.10;;;6.50;99.90;;;;;;5107999;28;20183;-85
2022/11/21 07:28:27;;;;;;;0.10;0.10;;;6.40;99.90;;;;;;5099339;28;20172;-85
2022/11/21 07:30:59;;;;;;;0.10;0.10;;;6.40;99.90;;;;;;5106121;28;20197;-85
2022/11/21 07:33:25;;;;;;;0.10;0.10;;;6.40;99.90;;;;;;5095338;28;20184;-85
2022/11/21 07:35:50;;;;;;;0.10;0.10;;;6.40;99.90;;;;;;5097968;28;20234;-86
2022/11/21 07:38:16;;;;;;;0.10;0.10;;;6.40;99.90;;;;;;5112109;28;20596;-85
2022/11/21 07:40:42;;;;;;;0.10;0.10;;;6.40;99.90;;;;;;5093873;28;20196;-85
2022/11/21 07:43:09;;;;;;;0.10;0.10;;;6.50;99.90;;;;;;5111149;28;20213;-85
2022/11/21 07:45:35;;;;;;;0.10;0.10;;;6.50;99.90;;;;;;5091528;28;20172;-85
2022/11/21 07:48:03;;;;;;;0.10;0.10;;;6.60;99.90;;;;;;5109140;28;20301;-85
2022/11/21 07:50:29;;;;;;;0.00;0.00;;;6.70;99.90;;;;;;5089630;28;20883;-85
2022/11/21 07:52:59;;;;;;;0.10;0.10;;;6.70;99.90;;;;;;5101292;28;20212;-85
2022/11/21 07:55:25;;;;;;;0.10;0.10;;;6.90;99.90;;;;;;5106813;28;20204;-85
2022/11/21 07:58:08;;;;;;;0.10;0.10;;;6.90;99.90;;;;;;5096465;28;20192;-85
2022/11/21 08:00:35;;;;;;;0.10;0.10;;;7.20;99.90;;;;;;5104780;28;20199;-85
2022/11/21 08:03:03;;;;;;;0.10;0.10;;;7.20;99.90;;;;;;5094118;28;20416;-85
2022/11/21 08:05:29;;;;;;;0.10;0.10;;;7.30;99.90;;;;;;5099086;28;20204;-85
2022/11/21 08:07:54;;;;;;;0.10;0.10;;;7.30;99.90;;;;;;5103136;28;20160;-85
2022/11/21 08:10:20;;;;;;;0.10;0.10;;;7.30;99.90;;;;;;5098134;28;20255;-85
2022/11/21 08:12:46;;;;;;;0.10;0.10;;;7.30;99.90;;;;;;5101161;28;20170;-85
2022/11/21 08:15:12;;;;;;;0.10;0.10;;;7.40;99.90;;;;;;5096277;28;20175;-86
2022/11/21 08:17:38;;;;;;;0.10;0.10;;;7.50;99.90;;;;;;5096267;28;20172;-85
2022/11/21 08:20:05;;;;;;;0.10;0.10;;;7.50;99.90;;;;;;5095865;28;20274;-85
2022/11/21 08:22:31;;;;;;;0.10;0.10;;;7.50;99.90;;;;;;5106759;28;20261;-86
2022/11/21 08:24:56;;;;;;;0.10;0.10;;;7.50;99.90;;;;;;5090587;28;20275;-85
2022/11/21 08:27:23;;;;;;;0.10;0.10;;;7.60;99.90;;;;;;5109549;28;20180;-85
2022/11/21 08:29:49;;;;;;;0.10;0.10;;;7.60;99.90;;;;;;5107160;28;20184;-86
2022/11/21 08:32:15;;;;;;;0.10;0.10;;;7.60;99.90;;;;;;5092564;28;20684;-85
2022/11/21 08:34:40;;;;;;;0.10;0.10;;;7.60;99.90;;;;;;5105657;28;20168;-85
2022/11/21 08:37:06;;;;;;;0.10;0.10;;;7.60;99.90;;;;;;5091851;28;20176;-85
2022/11/21 08:39:32;;;;;;;0.10;0.10;;;7.60;99.90;;;;;;5098871;28;20691;-85
2022/11/21 08:42:01;;;;;;;0.10;0.10;;;7.60;99.90;;;;;;5101786;28;20176;-85
2022/11/21 08:44:31;;;;;;;0.10;0.10;;;7.60;99.90;;;;;;5105512;28;20203;-86
2022/11/21 08:46:57;;;;;;;0.10;0.10;;;7.60;99.90;;;;;;5105708;28;20176;-85
2022/11/21 08:49:23;;;;;;;0.10;0.10;;;7.60;99.90;;;;;;5094789;28;20195;-86
2022/11/21 08:51:49;;;;;;;0.10;0.10;;;7.60;99.90;;;;;;5097044;28;20195;-85
2022/11/21 08:54:19;;;;;;;0.10;0.10;;;7.60;99.90;;;;;;5095456;28;20181;-86
2022/11/21 08:56:45;;;;;;;0.10;0.10;;;7.50;99.90;;;;;;5094081;28;20747;-86
2022/11/21 08:59:11;;;;;;;0.10;0.10;;;7.50;99.90;;;;;;5110890;28;20216;-85
2022/11/21 09:01:37;;;;;;;0.10;0.10;;;7.40;99.90;;;;;;5091445;28;20200;-84
2022/11/21 09:04:03;;;;;;;0.10;0.10;;;7.50;99.90;;;;;;5108629;28;20203;-85
2022/11/21 09:06:29;;;;;;;0.10;0.10;;;7.50;99.90;;;;;;5094177;28;20254;-86
2022/11/21 09:08:55;;;;;;;0.10;0.10;;;7.60;99.90;;;;;;5096698;28;20315;-85
2022/11/21 09:11:20;;;;;;;0.10;0.10;;;7.80;99.90;;;;;;5106194;28;20910;-85
2022/11/21 09:18:01;;;;;;;0.10;0.10;;;8.10;99.90;;;;;;5101854;28;20225;-85
2022/11/21 09:19:15;;;;;;;0.10;0.10;;;8.40;99.90;;;;;;5106673;28;20198;-86
2022/11/21 09:21:41;;;;;;;0.00;0.00;;;8.50;99.90;;;;;;5096811;28;20200;-85
2022/11/21 09:24:07;;;;;;;0.10;0.10;;;8.70;99.90;;;;;;5092580;28;20204;-85
2022/11/21 09:26:32;;;;;;;0.10;0.10;;;8.60;99.90;;;;;;5098018;28;20219;-85
2022/11/21 09:28:58;;;;;;;0.10;0.10;;;8.70;99.90;;;;;;5101345;28;20547;-86
2022/11/21 09:31:23;;;;;;;0.00;0.00;;;8.80;99.90;;;;;;5096343;28;20236;-86
2022/11/21 09:33:50;;;;;;;0.10;0.10;;;8.80;99.90;;;;;;5085864;28;20266;-85
2022/11/21 09:36:15;;;;;;;0.00;0.00;;;8.90;99.90;;;;;;5093685;28;20178;-86
2022/11/21 09:38:41;;;;;;;0.10;0.10;;;9.00;99.90;;;;;;5099671;28;20201;-85
2022/11/21 09:41:51;;;;;;;0.00;0.00;;;9.00;99.90;;;;;;5101785;28;20200;-85
2022/11/21 09:44:43;;;;;;;0.10;0.10;;;9.10;99.90;;;;;;5080522;28;20221;-85
2022/11/21 09:47:24;;;;;;;0.10;0.10;;;9.20;99.90;;;;;;5096853;28;20209;-86
2022/11/21 09:49:58;;;;;;;0.10;0.10;;;9.00;99.90;;;;;;5097650;28;20165;-85
2022/11/21 09:52:32;;;;;;;0.10;0.10;;;9.10;99.90;;;;;;5102972;28;20268;-86
2022/11/21 09:55:02;;;;;;;0.10;0.10;;;9.30;99.90;;;;;;5093984;28;20171;-86
2022/11/21 09:57:27;;;;;;;0.10;0.10;;;9.60;99.90;;;;;;5099245;28;20193;-85
2022/11/21 09:59:54;;;;;;;0.10;0.10;;;9.80;99.90;;;;;;5102953;28;20189;-86
2022/11/21 10:02:22;;;;;;;0.10;0.10;;;10.20;99.90;;;;;;5099886;28;20207;-87
2022/11/21 10:04:49;;;;;;;0.10;0.10;;;11.20;99.90;;;;;;5099816;28;20202;-86
2022/11/21 10:07:25;;;;;;;0.10;0.10;;;12.00;99.90;;;;;;5096855;28;20208;-85
2022/11/21 10:10:22;;;;;;;0.03;0.03;;;12.10;99.90;;;;;;5097714;28;20192;-86
2022/11/21 10:13:26;;;;;;;0.10;0.10;;;12.00;99.90;;;;;;5095341;28;20179;-85
2022/11/21 10:16:19;;;;;;;0.10;0.10;;;12.40;99.90;;;;;;5097598;28;20167;-86
2022/11/21 10:18:56;;;;;;;0.10;0.10;;;12.50;99.90;;;;;;5096666;28;20361;-86
2022/11/21 10:21:31;;;;;;;0.10;0.10;;;12.40;99.90;;;;;;5090848;28;20738;-85
2022/11/21 10:24:07;;;;;;;0.10;0.10;;;11.70;99.90;;;;;;5104269;28;20612;-86
2022/11/21 10:26:49;;;;;;;0.10;0.10;;;11.00;99.90;;;;;;5099290;28;20180;-86
2022/11/21 10:29:23;;;;;;;0.10;0.10;;;10.40;99.90;;;;;;5103815;28;20564;-86
2022/11/21 10:31:49;;;;;;;0.10;0.10;;;10.30;99.90;;;;;;5096486;28;20195;-85
2022/11/21 10:34:20;;;;;;;0.00;0.00;;;10.30;99.90;;;;;;5101668;28;20179;-86
2022/11/21 10:36:54;;;;;;;0.10;0.10;;;10.20;99.90;;;;;;5094947;28;20205;-86
2022/11/21 10:39:33;;;;;;;0.10;0.10;;;10.10;99.90;;;;;;5100198;28;20667;-86
2022/11/21 10:42:11;;;;;;;0.10;0.10;;;10.00;99.90;;;;;;5093459;28;20576;-86
2022/11/21 10:47:31;;;;;;;0.10;0.10;;;9.90;99.90;;;;;;5108888;28;20233;-85
2022/11/21 10:50:08;;;;;;;0.10;0.10;;;9.80;99.90;;;;;;5094402;28;20317;-86
2022/11/21 10:52:41;;;;;;;0.10;0.10;;;9.90;99.90;;;;;;5094976;28;20241;-86
2022/11/21 10:55:10;;;;;;;0.10;0.10;;;9.90;99.90;;;;;;5088602;28;20179;-86
2022/11/21 10:57:46;;;;;;;0.10;0.10;;;9.80;99.90;;;;;;5095316;28;20182;-86
2022/11/21 11:00:11;;;;;;;0.10;0.10;;;9.70;99.90;;;;;;5082840;28;20195;-86
2022/11/21 11:02:38;;;;;;;0.10;0.10;;;10.00;99.90;;;;;;5097079;28;20175;-85
2022/11/21 11:05:35;;;;;;;0.10;0.10;;;10.20;99.90;;;;;;5098049;28;20211;-86
2022/11/21 11:08:18;;;;;;;0.10;0.10;;;10.20;99.90;;;;;;5081383;28;20190;-85
2022/11/21 11:11:06;;;;;;;0.10;0.10;;;10.30;99.90;;;;;;5096092;28;20243;-86
2022/11/21 11:13:35;;;;;;;0.10;0.10;;;10.30;99.90;;;;;;5091352;28;20586;-85
2022/11/21 11:16:09;;;;;;;0.10;0.10;;;10.40;99.90;;;;;;5098348;28;20652;-86
2022/11/21 11:18:45;;;;;;;0.03;0.03;;;10.30;99.90;;;;;;5094090;28;20185;-85
2022/11/21 11:21:17;;;;;;;0.10;0.10;;;10.20;99.90;;;;;;5086109;28;20224;-85
2022/11/21 11:23:44;;;;;;;0.10;0.10;;;10.10;99.90;;;;;;5103023;28;20544;-86
2022/11/21 11:26:28;;;;;;;0.00;0.00;;;10.10;99.90;;;;;;5106004;28;20204;-86
2022/11/21 11:29:14;;;;;;;0.00;0.00;;;10.10;99.90;;;;;;5098891;28;20703;-85
2022/11/21 11:32:00;;;;;;;0.10;0.10;;;10.00;99.90;;;;;;5111835;27;20206;-86
2022/11/21 11:34:52;;;;;;;0.10;0.10;;;9.90;99.90;;;;;;5100083;28;20661;-86
2022/11/21 11:37:56;;;;;;;0.10;0.10;;;9.90;99.90;;;;;;5101373;28;20187;-85
2022/11/21 11:40:37;;;;;;;0.00;0.00;;;9.90;99.90;;;;;;5090572;28;20210;-86
2022/11/21 11:49:02;;;;;;;0.10;0.10;;;9.60;99.90;;;;;;5097248;28;20187;-86
2022/11/21 11:51:44;;;;;;;0.10;0.10;;;9.60;99.90;;;;;;5108339;28;20223;-86
2022/11/21 11:54:28;;;;;;;0.10;0.10;;;9.70;99.90;;;;;;5091244;28;20199;-86
2022/11/21 11:56:54;;;;;;;0.10;0.10;;;9.80;99.90;;;;;;5101627;28;20669;-86
2022/11/21 11:59:25;;;;;;;0.10;0.10;;;9.80;99.90;;;;;;5093362;28;20532;-84
2022/11/21 12:02:03;;;;;;;0.10;0.10;;;9.80;99.90;;;;;;5100914;28;20286;-86
2022/11/21 12:04:36;;;;;;;0.10;0.10;;;9.90;99.90;;;;;;5108445;28;20675;-86
2022/11/21 12:07:16;;;;;;;0.03;0.03;;;10.00;99.90;;;;;;5089706;28;20184;-85
2022/11/21 12:10:09;;;;;;;0.10;0.10;;;10.30;99.90;;;;;;5097164;28;20168;-85
2022/11/21 12:12:35;;;;;;;0.10;0.10;;;10.30;99.90;;;;;;5100808;28;20201;-85
2022/11/21 12:15:47;;;;;;;0.00;0.00;;;10.30;99.90;;;;;;5098224;28;20180;-86
2022/11/21 12:18:22;;;;;;;0.10;0.10;;;10.40;99.90;;;;;;5096020;28;20206;-86
2022/11/21 12:21:06;;;;;;;0.03;0.03;;;10.40;99.90;;;;;;5098992;28;20194;-86
2022/11/21 12:23:43;;;;;;;0.10;0.10;;;10.50;99.90;;;;;;5095841;28;20219;-85
2022/11/21 12:26:35;;;;;;;0.10;0.10;;;11.00;99.90;;;;;;5096470;28;20680;-85
2022/11/21 12:29:17;;;;;;;0.10;0.10;;;11.40;99.90;;;;;;5088694;28;20186;-85
2022/11/21 12:31:54;;;;;;;0.10;0.10;;;11.20;99.90;;;;;;5094226;28;20193;-86
2022/11/21 12:34:44;;;;;;;0.10;0.10;;;11.10;99.90;;;;;;5100060;28;20268;-86
2022/11/21 12:37:33;;;;;;;0.10;0.10;;;11.00;99.90;;;;;;5101644;28;20198;-85
2022/11/21 12:40:36;;;;;;;21.03;4.60;;;10.90;99.90;;;;;;5104252;28;20256;-86
2022/11/21 12:43:32;;;;;;;0.10;0.10;;;10.70;99.90;;;;;;5102801;28;20673;-86
2022/11/21 12:46:38;;;;;;;0.10;0.10;;;10.70;99.90;;;;;;5106121;28;20618;-85
2022/11/21 12:55:06;;;;;;;0.10;0.10;;;11.40;99.90;;;;;;5100523;28;20182;-86
2022/11/21 12:57:47;;;;;;;0.10;0.10;;;11.50;99.90;;;;;;5096444;28;20265;-86
2022/11/21 13:00:38;;;;;;;0.10;0.10;;;11.60;99.90;;;;;;5097470;28;20207;-86
2022/11/21 13:03:34;;;;;;;0.10;0.10;;;11.80;99.90;;;;;;5089029;28;20230;-86
2022/11/21 13:06:02;;;;;;;0.10;0.10;;;11.50;99.90;;;;;;5099675;28;20223;-86
2022/11/21 13:08:33;;;;;;;0.10;0.10;;;11.30;99.90;;;;;;5082680;28;20191;-86
2022/11/21 13:14:20;;;;;;;0.10;0.10;;;10.80;99.90;;;;;;5093623;28;20206;-86
2022/11/21 13:16:53;;;;;;;0.10;0.10;;;10.80;99.90;;;;;;5104660;28;20656;-86
2022/11/21 13:19:34;;;;;;;0.10;0.10;;;10.50;99.90;;;;;;5090447;28;20178;-86
2022/11/21 13:22:00;;;;;;;0.10;0.10;;;10.30;99.90;;;;;;5098061;28;20187;-85
2022/11/21 13:24:44;;;;;;;0.10;0.10;;;10.10;99.90;;;;;;5105177;28;20211;-85
2022/11/21 13:27:34;;;;;;;0.10;0.10;;;10.00;99.90;;;;;;5091912;28;20180;-86
2022/11/21 13:30:05;;;;;;;0.10;0.10;;;9.80;99.90;;;;;;5101469;28;20225;-85
2022/11/21 13:32:43;;;;;;;0.10;0.10;;;9.60;99.90;;;;;;5088784;28;20173;-86
2022/11/21 13:35:21;;;;;;;0.10;0.10;;;9.60;99.90;;;;;;5106405;28;20616;-86
2022/11/21 13:38:00;;;;;;;0.10;0.10;;;9.60;99.90;;;;;;5079635;28;20178;-86
2022/11/21 13:40:26;;;;;;;0.10;0.10;;;9.60;99.90;;;;;;5102906;28;20201;-86